Time;durP1;ratioP1;P1;durP2;ratioP2;P2;SDS_P1;SDS_P2;PMS_P1;PMS_P2;Temp;Humidity;BMP_temperature;BMP_pressure;BME280_temperature;BME280_humidity;BME280_pressure;Samples;Min_cycle;Max_cycle;Signal;HPM_P1;HPM_P2
2024/03/01 00:01:33;;;;;;;49.37;30.60;;;9.90;99.90;;;;;;4415409;31;20659;-86
2024/03/01 00:22:09;;;;;;;55.77;31.93;;;9.90;99.90;;;;;;4490659;30;21141;-85
2024/03/01 00:42:25;;;;;;;56.50;32.87;;;9.80;99.90;;;;;;4612903;30;20486;-85
2024/03/01 01:03:06;;;;;;;57.30;34.13;;;9.80;99.90;;;;;;4707985;29;20444;-86
2024/03/01 01:38:29;;;;;;;59.03;35.03;;;9.70;99.90;;;;;;4674990;29;20242;-87
2024/03/01 02:18:33;;;;;;;61.90;35.27;;;9.60;99.90;;;;;;4623163;30;20216;-85
2024/03/01 02:44:26;;;;;;;58.80;36.53;;;9.50;99.90;;;;;;4600231;30;20242;-87
2024/03/01 03:55:24;;;;;;;72.30;40.70;;;9.50;99.90;;;;;;4500908;31;20684;-87
2024/03/01 04:25:27;;;;;;;60.87;35.87;;;9.50;99.90;;;;;;4545658;30;20756;-85
2024/03/01 04:46:06;;;;;;;53.23;34.23;;;9.30;99.90;;;;;;4611341;30;20559;-87
2024/03/01 05:06:23;;;;;;;59.33;35.73;;;9.20;99.90;;;;;;4606800;30;20276;-86
2024/03/01 05:31:48;;;;;;;56.00;33.97;;;9.00;99.90;;;;;;4686906;29;20212;-85
2024/03/01 05:51:35;;;;;;;50.03;32.43;;;8.70;99.90;;;;;;4642566;29;21017;-85
2024/03/01 06:12:18;;;;;;;48.00;28.57;;;8.60;99.90;;;;;;4575267;30;20525;-82
2024/03/01 06:32:43;;;;;;;47.47;30.23;;;8.60;99.90;;;;;;4656639;30;20236;-86
2024/03/01 07:07:55;;;;;;;47.40;27.73;;;9.00;99.90;;;;;;4672549;30;21461;-86
2024/03/01 07:38:41;;;;;;;41.17;25.77;;;9.50;99.90;;;;;;4648169;30;20390;-87
2024/03/01 08:03:55;;;;;;;32.97;22.07;;;10.00;99.90;;;;;;4676263;29;20291;-86
2024/03/01 08:24:22;;;;;;;31.13;21.10;;;10.10;99.90;;;;;;4699189;29;20951;-84
2024/03/01 08:49:44;;;;;;;32.10;21.37;;;10.70;99.90;;;;;;4600268;30;21086;-88
2024/03/01 09:15:05;;;;;;;24.77;19.13;;;11.40;99.90;;;;;;4614447;30;20221;-86
2024/03/01 09:50:12;;;;;;;31.07;20.00;;;11.80;98.90;;;;;;4606553;30;20569;-84
2024/03/01 10:16:01;;;;;;;25.80;17.63;;;11.90;96.70;;;;;;4519783;30;20355;-84
2024/03/01 10:41:02;;;;;;;26.57;17.80;;;11.90;97.60;;;;;;4584886;30;20695;-88
2024/03/01 11:26:21;;;;;;;20.87;15.97;;;12.00;95.00;;;;;;4697267;29;20292;-87
2024/03/01 11:51:52;;;;;;;20.90;15.70;;;11.80;94.90;;;;;;4596878;30;20497;-88
2024/03/01 12:17:06;;;;;;;20.53;15.83;;;12.20;93.40;;;;;;4563467;30;20654;-87
2024/03/01 12:48:07;;;;;;;20.27;15.30;;;12.10;94.50;;;;;;4608635;30;20224;-87
2024/03/01 13:13:30;;;;;;;21.97;14.73;;;12.30;95.20;;;;;;4723233;29;20197;-85
2024/03/01 13:33:36;;;;;;;18.50;14.43;;;12.10;95.70;;;;;;4654455;30;20242;-86
2024/03/01 14:04:06;;;;;;;21.87;14.50;;;11.70;98.90;;;;;;4628864;30;20338;-84
2024/03/01 14:24:17;;;;;;;23.20;16.30;;;11.50;99.90;;;;;;4581068;30;20293;-85
2024/03/01 14:54:33;;;;;;;28.90;19.63;;;10.60;99.90;;;;;;4576977;30;20492;-85
2024/03/01 15:14:45;;;;;;;33.03;21.80;;;9.80;99.90;;;;;;4575858;30;20718;-85
2024/03/01 16:16:09;;;;;;;35.40;21.87;;;8.50;99.90;;;;;;4541304;30;20436;-87
2024/03/01 16:20:36;;;;;;;35.97;23.30;;;8.50;99.90;;;;;;4532006;30;20647;-87
2024/03/01 16:46:27;;;;;;;35.40;22.47;;;8.40;99.90;;;;;;4629641;30;20265;-86
2024/03/01 17:06:42;;;;;;;35.90;22.20;;;8.30;99.90;;;;;;4681563;29;20191;-87
2024/03/01 17:32:08;;;;;;;37.63;23.23;;;8.30;99.90;;;;;;4648483;30;20213;-85
2024/03/01 17:57:28;;;;;;;31.23;21.00;;;8.30;99.90;;;;;;4636896;30;20225;-84
2024/03/01 18:27:45;;;;;;;29.17;19.10;;;8.30;99.90;;;;;;4696334;29;20192;-86
2024/03/01 18:48:19;;;;;;;31.07;21.30;;;8.30;99.90;;;;;;4703032;30;20219;-86
2024/03/01 19:28:12;;;;;;;32.57;23.00;;;8.30;99.90;;;;;;4633489;30;20437;-86
2024/03/01 19:49:02;;;;;;;36.00;25.37;;;8.30;99.90;;;;;;4506414;31;20223;-87
2024/03/01 20:19:26;;;;;;;35.33;25.17;;;8.20;99.90;;;;;;4655287;30;20324;-84
2024/03/01 20:39:22;;;;;;;38.47;26.73;;;8.20;99.90;;;;;;4591212;30;21026;-88
2024/03/01 21:10:05;;;;;;;43.13;28.43;;;8.10;99.90;;;;;;4664193;30;20200;-89
2024/03/01 21:30:02;;;;;;;44.47;27.87;;;8.00;99.90;;;;;;4596378;30;20261;-86
2024/03/01 21:55:48;;;;;;;43.10;29.33;;;7.80;99.90;;;;;;4664474;30;20284;-87
2024/03/01 22:21:08;;;;;;;48.10;28.77;;;7.90;99.90;;;;;;4651511;30;20291;-86
2024/03/01 22:51:18;;;;;;;46.13;28.63;;;7.90;99.90;;;;;;4564950;30;20263;-87
2024/03/01 23:21:40;;;;;;;48.60;30.53;;;7.70;99.90;;;;;;4564869;30;20469;-86
